Time;durP1;ratioP1;P1;durP2;ratioP2;P2;SDS_P1;SDS_P2;PMS_P1;PMS_P2;Temp;Humidity;BMP_temperature;BMP_pressure;BME280_temperature;BME280_humidity;BME280_pressure;Samples;Min_cycle;Max_cycle;Signal;HPM_P1;HPM_P2
2022/10/02 00:00:35;;;;;;;8.77;5.10;;;;;;;;;;5012308;28;92148;-53
2022/10/02 00:03:07;;;;;;;9.63;5.33;;;;;;;;;;5005304;28;92184;-52
2022/10/02 00:05:36;;;;;;;7.67;4.50;;;;;;;;;;5006245;28;91337;-51
2022/10/02 00:08:05;;;;;;;11.23;5.03;;;;;;;;;;5002234;28;94382;-51
2022/10/02 00:10:35;;;;;;;8.40;4.40;;;;;;;;;;5006371;28;93633;-52
2022/10/02 00:13:04;;;;;;;6.83;4.60;;;;;;;;;;5007529;28;94455;-51
2022/10/02 00:15:32;;;;;;;7.77;4.23;;;;;;;;;;4999533;28;92093;-52
2022/10/02 00:18:02;;;;;;;8.33;4.63;;;;;;;;;;5004861;28;94314;-52
2022/10/02 00:20:34;;;;;;;9.23;5.50;;;;;;;;;;5009908;28;93031;-52
2022/10/02 00:23:03;;;;;;;8.00;3.57;;;;;;;;;;5008383;28;92470;-51
2022/10/02 00:25:32;;;;;;;8.20;4.40;;;;;;;;;;5011695;28;92093;-52
2022/10/02 00:28:07;;;;;;;7.17;4.57;;;;;;;;;;5000138;28;93725;-51
2022/10/02 00:30:38;;;;;;;11.77;4.47;;;;;;;;;;4998732;28;93886;-53
2022/10/02 00:33:07;;;;;;;8.07;4.33;;;;;;;;;;5002954;28;92390;-52
2022/10/02 00:35:40;;;;;;;9.97;4.97;;;;;;;;;;5000605;28;92062;-52
2022/10/02 00:38:11;;;;;;;7.93;5.00;;;;;;;;;;5009044;28;94137;-51
2022/10/02 00:40:43;;;;;;;6.87;3.80;;;;;;;;;;5018455;28;93573;-52
2022/10/02 00:43:14;;;;;;;9.07;3.70;;;;;;;;;;5018908;28;92168;-52
2022/10/02 00:45:49;;;;;;;7.67;3.73;;;;;;;;;;4994622;28;92169;-52
2022/10/02 00:48:22;;;;;;;5.87;3.40;;;;;;;;;;5005887;28;93073;-52
2022/10/02 00:50:53;;;;;;;7.27;3.67;;;;;;;;;;5016592;28;92218;-51
2022/10/02 00:53:23;;;;;;;5.10;3.13;;;;;;;;;;5015674;28;92127;-52
2022/10/02 00:55:57;;;;;;;5.10;3.80;;;;;;;;;;5020855;28;91334;-51
2022/10/02 00:58:33;;;;;;;8.63;3.10;;;;;;;;;;4999805;28;93987;-51
2022/10/02 01:01:03;;;;;;;6.17;3.67;;;;;;;;;;5000778;28;92910;-53
2022/10/02 01:03:32;;;;;;;5.77;2.37;;;;;;;;;;5001882;28;93109;-52
2022/10/02 01:06:02;;;;;;;4.33;2.90;;;;;;;;;;5006945;28;92051;-52
2022/10/02 01:08:30;;;;;;;4.30;2.67;;;;;;;;;;5000722;28;93106;-51
2022/10/02 01:10:59;;;;;;;4.37;2.80;;;;;;;;;;5000100;28;93854;-52
2022/10/02 01:13:27;;;;;;;3.90;2.70;;;;;;;;;;5000550;28;92108;-52
2022/10/02 01:15:56;;;;;;;5.27;2.60;;;;;;;;;;5004069;28;93300;-52
2022/10/02 01:18:24;;;;;;;4.53;2.80;;;;;;;;;;5008548;28;96354;-51
2022/10/02 01:20:53;;;;;;;6.23;2.70;;;;;;;;;;5011209;28;94012;-51
2022/10/02 01:23:27;;;;;;;5.20;2.70;;;;;;;;;;5007054;28;92146;-51
2022/10/02 01:25:57;;;;;;;5.50;2.60;;;;;;;;;;5016972;28;92116;-51
2022/10/02 01:28:25;;;;;;;6.30;2.80;;;;;;;;;;5015408;28;94119;-51
2022/10/02 01:30:55;;;;;;;6.90;3.00;;;;;;;;;;5007221;28;93767;-51
2022/10/02 01:33:23;;;;;;;4.97;2.87;;;;;;;;;;5006807;28;92258;-52
2022/10/02 01:35:52;;;;;;;5.73;2.77;;;;;;;;;;5008078;28;92127;-51
2022/10/02 01:38:21;;;;;;;6.00;2.93;;;;;;;;;;4998577;28;94250;-52
2022/10/02 01:40:50;;;;;;;4.43;2.47;;;;;;;;;;5000495;28;93838;-51
2022/10/02 01:43:20;;;;;;;4.07;2.37;;;;;;;;;;4999615;28;92094;-52
2022/10/02 01:45:53;;;;;;;3.93;1.93;;;;;;;;;;5007024;28;91464;-51
2022/10/02 01:48:23;;;;;;;3.47;2.73;;;;;;;;;;5000368;28;94083;-51
2022/10/02 01:50:54;;;;;;;4.70;2.87;;;;;;;;;;5000162;28;93242;-51
2022/10/02 01:53:24;;;;;;;4.53;2.07;;;;;;;;;;5000590;28;93085;-51
2022/10/02 01:55:53;;;;;;;3.37;2.07;;;;;;;;;;5009175;28;92186;-51
2022/10/02 01:58:25;;;;;;;7.03;2.23;;;;;;;;;;4998086;28;92834;-52
2022/10/02 02:00:57;;;;;;;4.37;2.10;;;;;;;;;;5003214;28;93437;-51
2022/10/02 02:03:28;;;;;;;3.13;2.27;;;;;;;;;;5001380;28;92164;-52
2022/10/02 02:05:57;;;;;;;3.87;1.97;;;;;;;;;;5008163;28;92066;-51
2022/10/02 02:08:27;;;;;;;5.27;2.13;;;;;;;;;;5010970;28;93145;-51
2022/10/02 02:11:02;;;;;;;3.70;1.70;;;;;;;;;;5013048;28;92880;-52
2022/10/02 02:13:32;;;;;;;4.80;1.87;;;;;;;;;;5000524;28;92088;-51
2022/10/02 02:16:02;;;;;;;3.40;2.20;;;;;;;;;;5008153;28;92486;-51
2022/10/02 02:18:33;;;;;;;3.33;2.13;;;;;;;;;;5013114;28;94985;-52
2022/10/02 02:21:03;;;;;;;5.00;2.27;;;;;;;;;;5016378;28;93542;-51
2022/10/02 02:23:31;;;;;;;2.33;1.70;;;;;;;;;;5010066;28;92319;-51
2022/10/02 02:26:00;;;;;;;1.63;1.53;;;;;;;;;;5008912;28;92062;-51
2022/10/02 02:28:28;;;;;;;3.07;2.07;;;;;;;;;;5012289;28;92291;-51
2022/10/02 02:30:58;;;;;;;2.70;1.93;;;;;;;;;;5002277;28;92762;-51
2022/10/02 02:33:28;;;;;;;3.83;2.37;;;;;;;;;;5008266;28;92694;-52
2022/10/02 02:35:57;;;;;;;3.47;1.90;;;;;;;;;;5003236;28;91336;-51
2022/10/02 02:38:27;;;;;;;5.57;1.80;;;;;;;;;;4999181;28;93146;-52
2022/10/02 02:40:55;;;;;;;2.77;1.67;;;;;;;;;;4997900;28;92849;-52
2022/10/02 02:43:25;;;;;;;4.90;1.50;;;;;;;;;;5002036;28;93073;-52
2022/10/02 02:45:54;;;;;;;4.20;1.77;;;;;;;;;;5004951;28;92078;-52
2022/10/02 02:48:25;;;;;;;4.30;1.50;;;;;;;;;;5005427;28;93320;-52
2022/10/02 02:50:54;;;;;;;3.37;1.60;;;;;;;;;;4994928;28;94101;-52
2022/10/02 02:53:23;;;;;;;5.27;1.87;;;;;;;;;;5006056;28;92313;-51
2022/10/02 02:55:52;;;;;;;3.37;1.20;;;;;;;;;;5006355;28;92124;-51
2022/10/02 02:58:21;;;;;;;2.73;1.53;;;;;;;;;;5014175;28;94180;-51
2022/10/02 03:00:49;;;;;;;3.33;1.50;;;;;;;;;;5002889;28;93589;-52
2022/10/02 03:03:18;;;;;;;4.23;1.67;;;;;;;;;;5017776;28;92132;-52
2022/10/02 03:05:48;;;;;;;4.90;1.53;;;;;;;;;;5011829;28;92606;-51
2022/10/02 03:08:19;;;;;;;1.90;1.30;;;;;;;;;;4998681;28;95049;-52
2022/10/02 03:10:51;;;;;;;3.40;1.83;;;;;;;;;;5014548;28;92458;-51
2022/10/02 03:13:24;;;;;;;2.27;1.37;;;;;;;;;;5010916;28;92089;-51
2022/10/02 03:15:55;;;;;;;3.30;1.50;;;;;;;;;;5003897;28;92055;-52
2022/10/02 03:18:36;;;;;;;2.23;1.53;;;;;;;;;;5004217;28;93141;-51
2022/10/02 03:21:07;;;;;;;1.13;1.00;;;;;;;;;;5017399;28;92756;-51
2022/10/02 03:23:37;;;;;;;2.40;1.27;;;;;;;;;;5017395;28;92117;-51
2022/10/02 03:26:07;;;;;;;2.10;1.40;;;;;;;;;;5017869;28;91362;-51
2022/10/02 03:28:37;;;;;;;4.13;1.43;;;;;;;;;;5017461;28;92222;-51
2022/10/02 03:31:23;;;;;;;2.33;1.33;;;;;;;;;;5010903;28;92801;-51
2022/10/02 03:33:52;;;;;;;2.07;1.20;;;;;;;;;;5017408;28;93283;-52
2022/10/02 03:36:23;;;;;;;3.90;1.40;;;;;;;;;;5017434;28;93319;-51
2022/10/02 03:38:52;;;;;;;1.37;1.00;;;;;;;;;;5017286;28;93319;-51
2022/10/02 03:41:40;;;;;;;2.90;1.30;;;;;;;;;;5017464;28;95041;-52
2022/10/02 03:44:08;;;;;;;1.43;1.27;;;;;;;;;;5018483;28;92081;-51
2022/10/02 03:46:36;;;;;;;1.00;0.90;;;;;;;;;;5015929;28;92976;-51
2022/10/02 03:49:05;;;;;;;2.20;1.27;;;;;;;;;;5014753;28;94264;-52
2022/10/02 03:51:35;;;;;;;1.70;1.03;;;;;;;;;;5016922;28;93317;-51
2022/10/02 03:54:03;;;;;;;1.60;0.90;;;;;;;;;;5016611;28;92070;-51
2022/10/02 03:56:35;;;;;;;1.90;1.13;;;;;;;;;;5016712;28;92467;-51
2022/10/02 03:59:04;;;;;;;1.63;1.03;;;;;;;;;;5016976;28;94121;-51
2022/10/02 04:01:33;;;;;;;6.20;1.37;;;;;;;;;;5017647;28;93494;-51
2022/10/02 04:04:03;;;;;;;2.47;1.10;;;;;;;;;;5017476;28;93316;-52
2022/10/02 04:06:34;;;;;;;1.40;1.10;;;;;;;;;;5020715;28;92069;-52
2022/10/02 04:09:05;;;;;;;1.37;0.93;;;;;;;;;;5020302;28;94058;-52
2022/10/02 04:11:34;;;;;;;1.50;1.10;;;;;;;;;;5020970;28;92800;-51
2022/10/02 04:14:05;;;;;;;3.27;1.93;;;;;;;;;;5020656;28;92694;-51
2022/10/02 04:16:34;;;;;;;2.53;1.40;;;;;;;;;;5021251;28;91331;-51
2022/10/02 04:19:04;;;;;;;4.23;1.10;;;;;;;;;;5019902;28;94073;-51
2022/10/02 04:21:34;;;;;;;3.70;1.30;;;;;;;;;;5020382;28;93775;-51
2022/10/02 04:24:05;;;;;;;2.10;1.17;;;;;;;;;;5020270;28;92999;-51
2022/10/02 04:26:34;;;;;;;1.60;1.20;;;;;;;;;;5020897;28;92606;-51
2022/10/02 04:29:06;;;;;;;1.63;1.03;;;;;;;;;;5020141;28;92163;-52
2022/10/02 04:31:34;;;;;;;0.73;0.67;;;;;;;;;;5019920;28;92853;-51
2022/10/02 04:34:02;;;;;;;1.13;0.90;;;;;;;;;;5019890;28;92158;-52
2022/10/02 04:36:35;;;;;;;1.37;0.97;;;;;;;;;;5020732;28;92116;-51
2022/10/02 04:39:08;;;;;;;1.83;1.23;;;;;;;;;;5019096;28;92147;-52
2022/10/02 04:41:58;;;;;;;2.47;1.00;;;;;;;;;;5021307;28;92350;-51
2022/10/02 04:44:35;;;;;;;3.97;1.30;;;;;;;;;;5019293;28;93143;-51
2022/10/02 04:47:07;;;;;;;0.97;0.73;;;;;;;;;;5020967;28;92009;-51
2022/10/02 04:49:41;;;;;;;1.03;0.93;;;;;;;;;;5019264;28;94907;-51
2022/10/02 04:52:15;;;;;;;2.30;0.80;;;;;;;;;;5016959;28;93366;-52
2022/10/02 04:54:49;;;;;;;0.80;0.80;;;;;;;;;;5016768;28;92177;-52
2022/10/02 04:57:21;;;;;;;2.63;1.33;;;;;;;;;;5014336;28;92274;-51
2022/10/02 04:59:52;;;;;;;1.57;1.00;;;;;;;;;;5019032;28;93908;-51
2022/10/02 05:02:33;;;;;;;4.80;1.10;;;;;;;;;;5019799;28;92769;-51
2022/10/02 05:05:04;;;;;;;2.00;0.83;;;;;;;;;;5018943;28;92164;-51
2022/10/02 05:07:40;;;;;;;0.83;0.63;;;;;;;;;;5010225;28;91323;-51
2022/10/02 05:10:17;;;;;;;1.87;0.80;;;;;;;;;;5019746;28;94142;-51
2022/10/02 05:12:49;;;;;;;3.07;1.10;;;;;;;;;;5019271;28;92164;-51
2022/10/02 05:15:21;;;;;;;1.57;0.80;;;;;;;;;;5018898;28;93045;-51
2022/10/02 05:17:58;;;;;;;1.60;0.87;;;;;;;;;;5019134;28;92115;-52
2022/10/02 05:20:32;;;;;;;0.90;0.80;;;;;;;;;;5014324;28;92966;-51
2022/10/02 05:23:11;;;;;;;2.43;0.70;;;;;;;;;;5012375;28;92630;-51
2022/10/02 05:25:54;;;;;;;1.00;0.70;;;;;;;;;;5005755;28;92191;-52
2022/10/02 05:28:27;;;;;;;2.23;0.77;;;;;;;;;;5003927;28;92706;-52
2022/10/02 05:30:55;;;;;;;3.50;0.50;;;;;;;;;;5009129;28;94125;-52
2022/10/02 05:33:31;;;;;;;1.07;0.90;;;;;;;;;;5000622;28;92677;-52
2022/10/02 05:36:04;;;;;;;1.23;0.80;;;;;;;;;;5008420;28;92718;-51
2022/10/02 05:38:39;;;;;;;0.93;0.83;;;;;;;;;;5019158;28;92158;-51
2022/10/02 05:41:09;;;;;;;2.63;0.70;;;;;;;;;;5016255;28;93874;-51
2022/10/02 05:43:38;;;;;;;1.47;0.70;;;;;;;;;;5015422;28;93511;-52
2022/10/02 05:46:09;;;;;;;0.90;0.90;;;;;;;;;;5005732;28;92199;-51
2022/10/02 05:48:38;;;;;;;3.00;1.53;;;;;;;;;;5013880;28;92237;-52
2022/10/02 05:51:07;;;;;;;2.47;1.47;;;;;;;;;;5012378;28;94113;-51
2022/10/02 05:53:36;;;;;;;2.37;1.30;;;;;;;;;;5009280;28;92730;-51
2022/10/02 05:56:05;;;;;;;2.30;1.80;;;;;;;;;;5007385;28;92095;-51
2022/10/02 05:58:36;;;;;;;1.47;1.37;;;;;;;;;;5003451;28;92474;-51
2022/10/02 06:01:06;;;;;;;5.17;2.33;;;;;;;;;;5003901;28;92897;-51
2022/10/02 06:03:34;;;;;;;5.80;1.57;;;;;;;;;;5007772;28;92721;-52
2022/10/02 06:06:03;;;;;;;3.87;1.87;;;;;;;;;;5006144;28;93141;-52
2022/10/02 06:08:34;;;;;;;3.67;1.77;;;;;;;;;;5014366;28;92259;-52
2022/10/02 06:11:04;;;;;;;2.87;2.00;;;;;;;;;;5003694;28;94094;-51
2022/10/02 06:13:35;;;;;;;3.27;2.47;;;;;;;;;;5000853;28;92821;-53
2022/10/02 06:16:05;;;;;;;3.03;1.90;;;;;;;;;;5000008;28;92244;-52
2022/10/02 06:18:34;;;;;;;4.00;2.77;;;;;;;;;;5007916;28;92128;-52
2022/10/02 06:21:02;;;;;;;3.93;2.23;;;;;;;;;;4998681;28;94179;-53
2022/10/02 06:23:31;;;;;;;3.67;2.13;;;;;;;;;;5005271;28;91529;-52
2022/10/02 06:26:00;;;;;;;4.23;2.50;;;;;;;;;;4998308;28;92145;-52
2022/10/02 06:28:28;;;;;;;5.83;2.37;;;;;;;;;;4998443;28;92483;-53
2022/10/02 06:31:00;;;;;;;4.03;2.50;;;;;;;;;;5001328;28;94036;-53
2022/10/02 06:33:28;;;;;;;4.97;3.17;;;;;;;;;;4996955;28;92288;-52
2022/10/02 06:36:15;;;;;;;3.40;2.30;;;;;;;;;;4998655;28;93869;-51
2022/10/02 06:38:51;;;;;;;4.10;2.10;;;;;;;;;;4967249;28;92301;-51
2022/10/02 06:41:23;;;;;;;4.97;3.10;;;;;;;;;;4998348;28;92985;-51
2022/10/02 06:43:55;;;;;;;3.40;2.47;;;;;;;;;;4998908;28;92451;-52
2022/10/02 06:46:28;;;;;;;8.73;3.33;;;;;;;;;;4997674;28;92107;-52
2022/10/02 06:48:58;;;;;;;5.57;3.17;;;;;;;;;;5000551;28;91861;-52
2022/10/02 06:51:30;;;;;;;4.47;3.50;;;;;;;;;;4996326;28;94216;-52
2022/10/02 06:54:01;;;;;;;6.20;3.57;;;;;;;;;;4996195;28;93897;-52
2022/10/02 06:56:35;;;;;;;6.80;3.43;;;;;;;;;;4998793;28;93132;-52
2022/10/02 06:59:08;;;;;;;4.90;3.87;;;;;;;;;;4986402;28;92180;-51
2022/10/02 07:01:41;;;;;;;6.83;3.50;;;;;;;;;;5001921;28;93129;-52
2022/10/02 07:04:18;;;;;;;6.13;3.83;;;;;;;;;;5001943;28;92991;-51
2022/10/02 07:06:51;;;;;;;7.30;4.63;;;;;;;;;;4999222;28;92448;-52
2022/10/02 07:09:25;;;;;;;11.43;5.10;;;;;;;;;;4998608;28;92070;-52
2022/10/02 07:11:54;;;;;;;6.73;4.03;;;;;;;;;;4997927;28;94172;-53
2022/10/02 07:14:26;;;;;;;13.40;5.93;;;;;;;;;;4997332;28;93480;-52
2022/10/02 07:16:59;;;;;;;6.53;4.93;;;;;;;;;;4998632;28;92100;-51
2022/10/02 07:19:31;;;;;;;9.33;5.37;;;;;;;;;;4997120;28;92152;-53
2022/10/02 07:22:01;;;;;;;9.87;5.27;;;;;;;;;;4984922;28;95323;-52
2022/10/02 07:24:53;;;;;;;11.57;5.73;;;;;;;;;;4985296;28;93848;-52
2022/10/02 07:27:21;;;;;;;8.33;5.70;;;;;;;;;;4997677;28;92095;-52
2022/10/02 07:29:53;;;;;;;8.03;5.13;;;;;;;;;;4997764;28;92137;-52
2022/10/02 07:32:26;;;;;;;13.37;6.10;;;;;;;;;;5010792;28;93181;-52
2022/10/02 07:34:57;;;;;;;8.93;5.63;;;;;;;;;;4996608;28;93930;-52
2022/10/02 07:37:27;;;;;;;8.17;5.07;;;;;;;;;;4996544;28;92534;-52
2022/10/02 07:40:01;;;;;;;10.73;7.13;;;;;;;;;;4999939;28;91334;-52
2022/10/02 07:42:32;;;;;;;11.97;7.00;;;;;;;;;;4995713;28;93479;-52
2022/10/02 07:45:07;;;;;;;12.63;7.40;;;;;;;;;;4997450;28;93887;-52
2022/10/02 07:47:43;;;;;;;17.07;6.73;;;;;;;;;;4997146;28;93030;-52
2022/10/02 07:50:13;;;;;;;13.13;7.40;;;;;;;;;;4997924;28;92543;-53
2022/10/02 07:52:44;;;;;;;15.13;7.93;;;;;;;;;;4996741;28;93212;-52
2022/10/02 07:55:15;;;;;;;16.33;8.23;;;;;;;;;;4997397;28;92924;-51
2022/10/02 07:57:47;;;;;;;14.70;7.57;;;;;;;;;;4993513;28;92417;-51
2022/10/02 08:00:16;;;;;;;13.87;7.73;;;;;;;;;;4997546;28;92453;-54
2022/10/02 08:02:48;;;;;;;19.57;9.27;;;;;;;;;;5006078;28;93222;-51
2022/10/02 08:05:20;;;;;;;13.87;8.07;;;;;;;;;;4994103;28;92771;-52
2022/10/02 08:07:49;;;;;;;19.73;9.53;;;;;;;;;;4992419;28;92785;-51
2022/10/02 08:10:18;;;;;;;15.63;8.77;;;;;;;;;;4990154;28;92611;-51
2022/10/02 08:12:48;;;;;;;15.97;7.83;;;;;;;;;;4993766;28;95189;-52
2022/10/02 08:15:17;;;;;;;10.53;7.73;;;;;;;;;;4995325;28;93783;-51
2022/10/02 08:17:48;;;;;;;14.43;7.97;;;;;;;;;;4998835;28;92595;-50
2022/10/02 08:20:19;;;;;;;13.80;7.20;;;;;;;;;;4994208;28;92609;-52
2022/10/02 08:22:48;;;;;;;11.23;6.90;;;;;;;;;;4997740;28;93474;-51
2022/10/02 08:25:18;;;;;;;16.60;9.03;;;;;;;;;;4995575;28;93703;-51
2022/10/02 08:27:48;;;;;;;16.57;7.57;;;;;;;;;;4997611;28;92171;-51
2022/10/02 08:30:17;;;;;;;17.40;7.10;;;;;;;;;;4996396;28;91481;-51
2022/10/02 08:32:46;;;;;;;15.30;7.67;;;;;;;;;;4996949;28;93156;-52
2022/10/02 08:35:16;;;;;;;15.90;7.10;;;;;;;;;;4995832;28;92859;-51
2022/10/02 08:37:48;;;;;;;15.47;8.07;;;;;;;;;;4992800;28;93151;-51
2022/10/02 08:40:31;;;;;;;15.43;8.43;;;;;;;;;;4998366;28;93735;-50
2022/10/02 08:43:11;;;;;;;15.77;8.03;;;;;;;;;;4991479;28;92965;-51
2022/10/02 08:45:54;;;;;;;12.80;7.57;;;;;;;;;;4995440;28;93967;-52
2022/10/02 08:48:41;;;;;;;15.80;8.90;;;;;;;;;;4996040;28;92382;-51
2022/10/02 08:51:24;;;;;;;14.90;8.73;;;;;;;;;;4992907;28;92098;-51
2022/10/02 08:53:59;;;;;;;18.03;8.80;;;;;;;;;;4997616;28;93260;-51
2022/10/02 08:56:38;;;;;;;17.37;10.40;;;;;;;;;;4998779;28;94155;-52
2022/10/02 08:59:18;;;;;;;14.83;9.17;;;;;;;;;;4998494;28;92089;-51
2022/10/02 09:02:02;;;;;;;17.00;8.93;;;;;;;;;;4998225;28;93320;-51
2022/10/02 09:04:49;;;;;;;13.23;8.47;;;;;;;;;;4985339;28;94235;-51
2022/10/02 09:07:38;;;;;;;14.43;9.43;;;;;;;;;;4999445;28;93868;-51
2022/10/02 09:10:32;;;;;;;13.17;8.47;;;;;;;;;;4993911;28;92158;-51
2022/10/02 09:13:24;;;;;;;17.53;7.50;;;;;;;;;;5000495;28;92697;-51
2022/10/02 09:15:54;;;;;;;14.53;8.60;;;;;;;;;;4979977;28;92950;-52
2022/10/02 09:18:29;;;;;;;14.53;6.73;;;;;;;;;;4999528;28;92875;-51
2022/10/02 09:21:04;;;;;;;16.03;8.10;;;;;;;;;;4985057;28;92585;-51
2022/10/02 09:24:02;;;;;;;9.43;5.87;;;;;;;;;;5019108;28;91487;-51
2022/10/02 09:26:36;;;;;;;16.60;8.13;;;;;;;;;;5018655;28;94250;-52
2022/10/02 09:29:10;;;;;;;14.47;7.40;;;;;;;;;;5019085;28;92969;-51
2022/10/02 09:32:02;;;;;;;13.73;7.53;;;;;;;;;;5009423;28;93054;-51
2022/10/02 09:34:35;;;;;;;12.30;6.63;;;;;;;;;;5015162;28;92199;-51
2022/10/02 09:37:23;;;;;;;12.70;6.67;;;;;;;;;;5017704;28;92361;-51
2022/10/02 09:40:15;;;;;;;13.70;6.83;;;;;;;;;;5017537;28;94148;-51
2022/10/02 09:42:59;;;;;;;12.27;5.83;;;;;;;;;;4980470;28;92011;-51
2022/10/02 09:45:35;;;;;;;11.13;6.23;;;;;;;;;;5007481;28;92256;-51
2022/10/02 09:48:29;;;;;;;13.80;5.83;;;;;;;;;;5010999;28;93105;-52
2022/10/02 09:51:16;;;;;;;9.20;5.97;;;;;;;;;;5017267;28;94037;-51
2022/10/02 09:53:53;;;;;;;12.80;6.13;;;;;;;;;;5019458;28;92026;-52
2022/10/02 09:56:26;;;;;;;11.83;6.00;;;;;;;;;;5019628;28;92136;-51
2022/10/02 09:59:13;;;;;;;10.10;5.43;;;;;;;;;;5018497;28;93103;-51
2022/10/02 10:02:00;;;;;;;8.33;5.10;;;;;;;;;;5018793;28;94757;-51
2022/10/02 10:04:42;;;;;;;12.67;5.90;;;;;;;;;;5019721;28;92106;-51
2022/10/02 10:07:38;;;;;;;9.07;5.07;;;;;;;;;;5019323;28;92084;-51
2022/10/02 10:10:28;;;;;;;10.97;5.57;;;;;;;;;;5019147;28;92948;-51
2022/10/02 10:13:11;;;;;;;11.67;6.20;;;;;;;;;;5016354;28;93144;-52
2022/10/02 10:15:57;;;;;;;12.87;5.33;;;;;;;;;;5016409;28;92113;-51
2022/10/02 10:18:49;;;;;;;9.80;5.93;;;;;;;;;;5015646;28;91423;-52
2022/10/02 10:21:28;;;;;;;12.87;5.77;;;;;;;;;;4950250;28;93138;-51
2022/10/02 10:24:05;;;;;;;6.10;4.97;;;;;;;;;;4999168;28;93052;-51
2022/10/02 10:26:57;;;;;;;11.13;5.67;;;;;;;;;;5019178;28;93055;-52
2022/10/02 10:29:44;;;;;;;8.07;4.07;;;;;;;;;;4994190;28;92249;-51
2022/10/02 10:32:29;;;;;;;9.37;5.27;;;;;;;;;;4999021;28;94246;-51
2022/10/02 10:35:04;;;;;;;11.63;5.30;;;;;;;;;;4999107;28;94121;-52
2022/10/02 10:40:37;;;;;;;9.47;5.50;;;;;;;;;;4999073;28;92033;-51
2022/10/02 10:43:14;;;;;;;11.53;4.77;;;;;;;;;;4998670;28;94451;-50
2022/10/02 10:45:57;;;;;;;9.27;4.93;;;;;;;;;;4999789;28;93203;-51
2022/10/02 10:48:32;;;;;;;10.17;5.80;;;;;;;;;;4998903;28;92198;-52
2022/10/02 10:51:05;;;;;;;7.17;4.80;;;;;;;;;;4998384;28;92092;-51
2022/10/02 10:53:38;;;;;;;12.30;5.73;;;;;;;;;;5017941;28;94075;-52
2022/10/02 10:56:26;;;;;;;9.87;5.10;;;;;;;;;;5013360;28;95187;-51
2022/10/02 10:59:01;;;;;;;9.87;4.93;;;;;;;;;;4997770;28;93620;-52
2022/10/02 11:01:35;;;;;;;5.50;4.47;;;;;;;;;;4998802;28;92200;-51
2022/10/02 11:04:18;;;;;;;6.03;4.50;;;;;;;;;;4998334;28;94184;-49
2022/10/02 11:06:51;;;;;;;9.00;5.67;;;;;;;;;;4998246;28;93743;-50
2022/10/02 11:09:30;;;;;;;6.47;4.27;;;;;;;;;;4998787;28;92726;-51
2022/10/02 11:12:02;;;;;;;9.47;4.47;;;;;;;;;;4999057;28;91432;-52
2022/10/02 11:14:39;;;;;;;7.60;3.73;;;;;;;;;;4997364;28;92138;-51
2022/10/02 11:17:23;;;;;;;10.43;4.57;;;;;;;;;;4998437;28;92803;-50
2022/10/02 11:20:09;;;;;;;10.07;4.37;;;;;;;;;;4999590;28;93529;-50
2022/10/02 11:22:42;;;;;;;6.40;3.67;;;;;;;;;;4978121;28;92342;-51
2022/10/02 11:25:24;;;;;;;8.17;3.60;;;;;;;;;;4998143;28;93920;-52
2022/10/02 11:28:05;;;;;;;9.70;3.47;;;;;;;;;;4998128;28;92772;-50
2022/10/02 11:30:34;;;;;;;5.30;2.80;;;;;;;;;;4997366;28;92203;-50
2022/10/02 11:33:18;;;;;;;5.93;3.23;;;;;;;;;;4983589;28;92633;-50
2022/10/02 11:36:10;;;;;;;4.53;2.90;;;;;;;;;;4997430;28;93301;-49
2022/10/02 11:39:03;;;;;;;7.80;3.13;;;;;;;;;;4958673;28;93984;-50
2022/10/02 11:41:42;;;;;;;5.40;2.40;;;;;;;;;;4963862;28;92182;-50
2022/10/02 11:44:12;;;;;;;4.60;2.53;;;;;;;;;;4995426;28;92044;-49
2022/10/02 11:46:58;;;;;;;4.23;2.60;;;;;;;;;;4997231;28;96403;-50
2022/10/02 11:49:33;;;;;;;6.20;2.33;;;;;;;;;;4994907;28;94713;-50
2022/10/02 11:52:14;;;;;;;3.27;2.30;;;;;;;;;;4997377;28;92498;-50
2022/10/02 11:54:45;;;;;;;2.87;2.17;;;;;;;;;;4998073;28;91943;-50
2022/10/02 11:57:21;;;;;;;4.93;2.13;;;;;;;;;;4997680;28;94584;-50
2022/10/02 12:00:12;;;;;;;3.00;2.00;;;;;;;;;;4997598;28;92477;-50
2022/10/02 12:02:43;;;;;;;6.17;2.73;;;;;;;;;;4966269;28;92142;-50
2022/10/02 12:05:28;;;;;;;3.50;1.93;;;;;;;;;;4997606;28;92179;-50
2022/10/02 12:08:00;;;;;;;5.90;2.30;;;;;;;;;;4997914;28;92086;-49
2022/10/02 12:10:41;;;;;;;2.53;1.67;;;;;;;;;;4997694;28;93511;-50
2022/10/02 12:13:26;;;;;;;3.37;1.27;;;;;;;;;;4997796;28;92901;-50
2022/10/02 12:15:57;;;;;;;2.77;1.40;;;;;;;;;;4997789;28;92051;-50
2022/10/02 12:18:30;;;;;;;3.30;1.73;;;;;;;;;;4996542;28;94091;-50
2022/10/02 12:27:02;;;;;;;3.37;1.87;;;;;;;;;;5000600;28;92175;-51
2022/10/02 12:29:39;;;;;;;3.00;1.40;;;;;;;;;;5000514;28;93321;-50
2022/10/02 12:32:10;;;;;;;6.10;2.00;;;;;;;;;;5001011;28;94048;-50
2022/10/02 12:34:41;;;;;;;5.10;1.83;;;;;;;;;;5001456;28;91952;-50
2022/10/02 12:37:10;;;;;;;3.00;1.50;;;;;;;;;;5001162;28;92126;-50
2022/10/02 12:39:41;;;;;;;0.97;0.73;;;;;;;;;;5000511;28;94053;-51
2022/10/02 12:42:12;;;;;;;4.07;1.50;;;;;;;;;;5000909;28;93336;-50
2022/10/02 12:44:44;;;;;;;3.33;1.30;;;;;;;;;;5001292;28;92143;-50
2022/10/02 12:47:20;;;;;;;2.07;1.50;;;;;;;;;;5000836;28;92103;-50
2022/10/02 12:49:51;;;;;;;2.97;1.13;;;;;;;;;;5000009;28;93149;-50
2022/10/02 12:52:26;;;;;;;3.90;1.17;;;;;;;;;;5000122;28;92785;-50
2022/10/02 12:55:02;;;;;;;1.53;1.00;;;;;;;;;;5001125;28;92118;-50
2022/10/02 12:57:52;;;;;;;1.20;1.03;;;;;;;;;;5001491;28;91509;-50
2022/10/02 13:00:22;;;;;;;1.83;0.90;;;;;;;;;;5000675;28;92944;-50
2022/10/02 13:02:58;;;;;;;2.00;0.60;;;;;;;;;;5000596;28;92854;-50
2022/10/02 13:05:46;;;;;;;6.90;1.23;;;;;;;;;;4999962;28;93026;-50
2022/10/02 13:08:29;;;;;;;5.17;0.63;;;;;;;;;;5000638;28;92335;-50
2022/10/02 13:11:01;;;;;;;0.87;0.87;;;;;;;;;;4997977;28;92905;-50
2022/10/02 13:13:34;;;;;;;1.70;1.00;;;;;;;;;;5000050;28;93988;-50
2022/10/02 13:16:06;;;;;;;0.93;0.93;;;;;;;;;;5000779;28;92090;-50
2022/10/02 13:18:42;;;;;;;1.37;0.77;;;;;;;;;;5002156;28;92161;-50
2022/10/02 13:21:13;;;;;;;7.37;1.00;;;;;;;;;;4999752;28;93198;-50
2022/10/02 13:23:42;;;;;;;2.63;0.97;;;;;;;;;;5000725;28;93848;-50
2022/10/02 13:26:14;;;;;;;1.73;0.80;;;;;;;;;;5000547;28;92203;-50
2022/10/02 13:28:52;;;;;;;1.43;0.47;;;;;;;;;;5000200;28;92136;-50
2022/10/02 13:31:25;;;;;;;0.97;0.70;;;;;;;;;;4998951;28;95186;-50
2022/10/02 13:34:01;;;;;;;3.80;0.70;;;;;;;;;;4999853;28;92594;-50
2022/10/02 13:36:31;;;;;;;0.63;0.63;;;;;;;;;;5000069;28;91942;-51
2022/10/02 13:39:12;;;;;;;1.57;0.50;;;;;;;;;;5000398;28;92220;-50
2022/10/02 13:41:44;;;;;;;2.13;0.73;;;;;;;;;;4999915;28;93358;-50
2022/10/02 13:44:15;;;;;;;3.20;0.80;;;;;;;;;;4999517;28;93632;-50
2022/10/02 13:46:52;;;;;;;1.07;0.80;;;;;;;;;;4999747;28;92218;-50
2022/10/02 13:49:23;;;;;;;1.77;1.10;;;;;;;;;;5000263;28;91512;-50
2022/10/02 13:51:52;;;;;;;2.40;0.70;;;;;;;;;;4999682;28;93139;-50
2022/10/02 13:54:31;;;;;;;0.53;0.50;;;;;;;;;;4999554;28;93572;-50
2022/10/02 13:57:01;;;;;;;1.07;0.97;;;;;;;;;;4999506;28;93081;-50
2022/10/02 13:59:38;;;;;;;2.60;1.07;;;;;;;;;;4999728;28;92181;-51
2022/10/02 14:02:13;;;;;;;1.67;0.90;;;;;;;;;;4999445;28;93029;-50
2022/10/02 14:04:47;;;;;;;2.80;1.30;;;;;;;;;;4998650;28;92763;-51
2022/10/02 14:07:20;;;;;;;2.47;1.27;;;;;;;;;;4998012;28;92522;-50
2022/10/02 14:09:52;;;;;;;1.73;1.00;;;;;;;;;;5009915;28;92211;-51
2022/10/02 14:12:26;;;;;;;2.37;0.80;;;;;;;;;;4999221;28;93042;-50
2022/10/02 14:15:04;;;;;;;2.97;0.80;;;;;;;;;;4998897;28;92761;-50
2022/10/02 14:17:35;;;;;;;3.77;1.00;;;;;;;;;;5003720;28;92091;-50
2022/10/02 14:20:04;;;;;;;3.73;0.70;;;;;;;;;;5000474;28;92017;-51
2022/10/02 14:22:34;;;;;;;1.30;0.80;;;;;;;;;;4997723;28;94098;-50
2022/10/02 14:25:08;;;;;;;1.30;0.70;;;;;;;;;;4999642;28;93801;-50
2022/10/02 14:27:56;;;;;;;1.30;0.83;;;;;;;;;;4999103;28;92052;-50
2022/10/02 14:30:24;;;;;;;1.50;0.80;;;;;;;;;;4999472;28;92082;-50
2022/10/02 14:32:56;;;;;;;0.60;0.60;;;;;;;;;;4998652;28;93317;-50
2022/10/02 14:35:35;;;;;;;0.67;0.50;;;;;;;;;;4999039;28;93658;-50
2022/10/02 14:38:36;;;;;;;2.63;1.00;;;;;;;;;;4998834;28;92138;-50
2022/10/02 14:41:12;;;;;;;1.77;0.73;;;;;;;;;;4957637;28;92283;-50
2022/10/02 14:44:01;;;;;;;0.70;0.60;;;;;;;;;;4967404;28;93178;-50
2022/10/02 14:46:32;;;;;;;0.80;0.80;;;;;;;;;;4979882;28;93868;-50
2022/10/02 14:49:06;;;;;;;0.70;0.70;;;;;;;;;;4995200;28;93110;-50
2022/10/02 14:51:45;;;;;;;0.80;0.70;;;;;;;;;;4998338;28;92104;-51
2022/10/02 14:54:20;;;;;;;1.93;0.50;;;;;;;;;;4998061;28;92570;-50
2022/10/02 14:57:06;;;;;;;3.30;1.07;;;;;;;;;;4998534;28;92493;-50
2022/10/02 14:59:52;;;;;;;0.70;0.60;;;;;;;;;;4998798;28;92099;-50
2022/10/02 15:02:25;;;;;;;3.40;0.73;;;;;;;;;;4998386;28;92114;-50
2022/10/02 15:04:56;;;;;;;3.33;1.17;;;;;;;;;;5037675;22;93127;-76
2022/10/02 15:07:33;;;;;;;2.63;0.87;;;;;;;;;;5041267;27;94141;-76
2022/10/02 15:10:03;;;;;;;1.57;1.00;;;;;;;;;;5052995;27;92050;-81
2022/10/02 15:12:42;;;;;;;1.73;1.10;;;;;;;;;;5056661;27;92205;-82
2022/10/02 15:15:12;;;;;;;5.17;0.80;;;;;;;;;;5052097;27;93054;-79
2022/10/02 15:17:55;;;;;;;1.80;0.60;;;;;;;;;;5039566;28;94882;-81
2022/10/02 15:20:30;;;;;;;0.70;0.63;;;;;;;;;;5039346;28;92293;-77
2022/10/02 15:22:59;;;;;;;2.07;0.80;;;;;;;;;;5050346;27;92066;-75
2022/10/02 15:25:42;;;;;;;2.03;1.03;;;;;;;;;;5053252;27;93750;-75
2022/10/02 15:28:12;;;;;;;1.37;0.90;;;;;;;;;;5035330;27;93043;-77
2022/10/02 15:31:02;;;;;;;5.23;1.30;;;;;;;;;;5043739;27;92176;-81